Time,TemperatureF,DewpointF,PressureIn,WindDirection,WindDirectionDegrees,WindSpeedMPH,WindSpeedGustMPH,Humidity,HourlyPrecipIn,Conditions,Clouds,dailyrainin,SolarRadiationWatts/m^2,SoftwareType,DateUTC
2013-01-07 08:59:00,64.8,54.0,29.76,SSE,166,5.0,7.0,68,0.00,,,0.00,615,Wunderground v.1.15,2013-01-07 14:59:00,
2013-01-07 09:09:00,65.7,54.8,29.77,SSE,148,7.0,7.0,68,0.00,,,0.00,643,Wunderground v.1.15,2013-01-07 15:09:00,
2013-01-07 09:49:00,66.7,55.4,29.74,SSE,163,5.0,5.0,67,0.00,,,0.00,744,Wunderground v.1.15,2013-01-07 15:49:00,
2013-01-07 09:54:00,66.8,55.9,29.74,North,5,5.0,33.0,68,0.00,,,0.00,752,Wunderground v.1.15,2013-01-07 15:54:00,
2013-01-07 09:59:00,67.1,55.4,29.74,North,349,4.0,4.0,66,0.00,,,0.00,763,Wunderground v.1.15,2013-01-07 15:59:00,
2013-01-07 10:04:00,67.0,55.3,29.74,WNW,300,4.0,10.0,66,0.00,,,0.00,773,Wunderground v.1.15,2013-01-07 16:04:00,
2013-01-07 10:09:00,67.0,54.8,29.74,East,92,6.0,15.0,65,0.00,,,0.00,782,Wunderground v.1.15,2013-01-07 16:09:00,
2013-01-07 10:14:00,66.5,55.6,29.74,North,355,8.0,15.0,68,0.00,,,0.00,791,Wunderground v.1.15,2013-01-07 16:14:00,
2013-01-07 10:24:00,66.6,55.7,29.73,North,355,9.0,17.0,68,0.00,,,0.00,809,Wunderground v.1.15,2013-01-07 16:24:00,
2013-01-07 10:29:00,66.4,55.1,29.73,NNE,32,10.0,21.0,67,0.00,,,0.00,814,Wunderground v.1.15,2013-01-07 16:29:00,
2013-01-07 10:34:00,66.5,55.2,29.72,North,9,11.0,25.0,67,0.00,,,0.00,821,Wunderground v.1.15,2013-01-07 16:34:00,
2013-01-07 10:39:00,66.6,55.3,29.72,NNW,344,10.0,25.0,67,0.00,,,0.00,824,Wunderground v.1.15,2013-01-07 16:39:00,
2013-01-07 11:00:00,67.4,54.4,29.71,NNE,23,9.0,-999.0,63,0.00,,,0.01,849,Wunderground v.1.15,2013-01-07 17:00:00,
2013-01-07 11:05:00,67.7,54.2,29.71,NE,45,10.0,-999.0,62,0.00,,,0.01,856,Wunderground v.1.15,2013-01-07 17:05:00,
2013-01-07 11:10:00,67.8,52.9,29.70,NE,45,16.0,-999.0,59,0.00,,,0.01,860,Wunderground v.1.15,2013-01-07 17:10:00,
2013-01-07 11:15:00,67.6,52.3,29.71,NE,45,12.0,-999.0,58,0.00,,,0.01,862,Wunderground v.1.15,2013-01-07 17:15:00,
2013-01-07 11:20:00,68.1,53.2,29.71,NE,45,11.0,-999.0,59,0.00,,,0.01,864,Wunderground v.1.15,2013-01-07 17:20:00,
2013-01-07 11:25:00,68.4,53.0,29.70,North,0,8.0,-999.0,58,0.00,,,0.01,864,Wunderground v.1.15,2013-01-07 17:25:00,
2013-01-07 11:30:00,68.5,53.1,29.69,NNE,23,9.0,-999.0,58,0.00,,,0.01,867,Wunderground v.1.15,2013-01-07 17:30:00,
2013-01-07 11:35:00,68.7,52.8,29.70,NE,45,9.0,-999.0,57,0.00,,,0.01,868,Wunderground v.1.15,2013-01-07 17:35:00,
2013-01-07 11:40:00,69.1,53.2,29.69,NE,45,7.0,-999.0,57,0.00,,,0.01,867,Wunderground v.1.15,2013-01-07 17:40:00,
2013-01-07 11:45:00,68.8,53.9,29.69,NE,45,8.0,-999.0,59,0.00,,,0.01,865,Wunderground v.1.15,2013-01-07 17:45:00,
2013-01-07 11:50:00,69.0,53.6,29.69,North,0,9.0,-999.0,58,0.00,,,0.01,865,Wunderground v.1.15,2013-01-07 17:50:00,
2013-01-07 11:55:00,68.8,53.9,29.69,NNE,23,5.0,-999.0,59,0.00,,,0.01,864,Wunderground v.1.15,2013-01-07 17:55:00,
2013-01-07 12:00:00,68.9,54.4,29.68,NNE,23,11.0,-999.0,60,0.00,,,0.01,861,Wunderground v.1.15,2013-01-07 18:00:00,
2013-01-07 12:05:00,69.1,54.6,29.68,North,0,8.0,-999.0,60,0.00,,,0.01,859,Wunderground v.1.15,2013-01-07 18:05:00,
2013-01-07 12:10:00,68.9,54.4,29.68,NNE,23,13.0,-999.0,60,0.00,,,0.01,856,Wunderground v.1.15,2013-01-07 18:10:00,
2013-01-07 12:15:00,68.8,54.3,29.68,NE,45,11.0,-999.0,60,0.00,,,0.01,855,Wunderground v.1.15,2013-01-07 18:15:00,
2013-01-07 12:20:00,68.3,53.9,29.68,NE,45,13.0,-999.0,60,0.00,,,0.01,849,Wunderground v.1.15,2013-01-07 18:20:00,
2013-01-07 12:25:00,68.4,54.4,29.68,NNE,23,9.0,-999.0,61,0.00,,,0.01,844,Wunderground v.1.15,2013-01-07 18:25:00,
2013-01-07 12:30:00,68.6,54.6,29.68,NE,45,7.0,-999.0,61,0.00,,,0.01,840,Wunderground v.1.15,2013-01-07 18:30:00,
2013-01-07 12:35:00,68.8,55.2,29.67,NE,45,6.0,-999.0,62,0.00,,,0.01,836,Wunderground v.1.15,2013-01-07 18:35:00,
2013-01-07 12:40:00,69.3,55.3,29.67,SSE,158,5.0,-999.0,61,0.00,,,0.01,830,Wunderground v.1.15,2013-01-07 18:40:00,
2013-01-07 12:45:00,69.4,55.8,29.67,SE,135,5.0,-999.0,62,0.00,,,0.01,824,Wunderground v.1.15,2013-01-07 18:45:00,
2013-01-07 12:50:00,69.5,55.9,29.67,WNW,293,4.0,-999.0,62,0.00,,,0.01,819,Wunderground v.1.15,2013-01-07 18:50:00,
2013-01-07 12:55:00,69.5,55.9,29.66,NNE,23,2.0,-999.0,62,0.00,,,0.01,809,Wunderground v.1.15,2013-01-07 18:55:00,
2013-01-07 13:00:00,69.5,55.9,29.66,NE,45,5.0,-999.0,62,0.00,,,0.01,802,Wunderground v.1.15,2013-01-07 19:00:00,
2013-01-07 13:05:00,69.7,55.6,29.66,NNE,23,6.0,-999.0,61,0.00,,,0.01,795,Wunderground v.1.15,2013-01-07 19:05:00,
2013-01-07 13:10:00,69.3,55.7,29.65,NE,45,5.0,-999.0,62,0.00,,,0.01,788,Wunderground v.1.15,2013-01-07 19:10:00,
2013-01-07 13:15:00,69.2,56.1,29.65,NNE,23,8.0,-999.0,63,0.00,,,0.01,780,Wunderground v.1.15,2013-01-07 19:15:00,
2013-01-07 13:20:00,68.9,56.2,29.65,North,0,4.0,-999.0,64,0.00,,,0.01,771,Wunderground v.1.15,2013-01-07 19:20:00,
2013-01-07 13:25:00,69.0,56.7,29.65,NNE,23,4.0,-999.0,65,0.01,,,0.01,761,Wunderground v.1.15,2013-01-07 19:25:00,
2013-01-07 13:30:00,68.6,55.9,29.64,NNE,23,10.0,-999.0,64,0.01,,,0.01,751,Wunderground v.1.15,2013-01-07 19:30:00,
2013-01-07 13:35:00,68.7,56.0,29.64,WSW,248,4.0,-999.0,64,0.01,,,0.01,739,Wunderground v.1.15,2013-01-07 19:35:00,
2013-01-07 13:40:00,69.1,56.4,29.63,SSE,158,5.0,-999.0,64,0.01,,,0.01,727,Wunderground v.1.15,2013-01-07 19:40:00,
2013-01-07 13:45:00,69.0,56.7,29.64,East,90,4.0,-999.0,65,0.01,,,0.01,718,Wunderground v.1.15,2013-01-07 19:45:00,
2013-01-07 13:50:00,69.1,57.3,29.63,ESE,113,6.0,-999.0,66,0.01,,,0.01,705,Wunderground v.1.15,2013-01-07 19:50:00,
2013-01-07 13:55:00,69.4,58.0,29.63,SSE,158,5.0,-999.0,67,0.01,,,0.01,694,Wunderground v.1.15,2013-01-07 19:55:00,
2013-01-07 14:00:00,69.4,58.0,29.63,NE,45,3.0,-999.0,67,0.01,,,0.01,680,Wunderground v.1.15,2013-01-07 20:00:00,
2013-01-07 14:05:00,68.9,57.9,29.63,NNE,23,7.0,-999.0,68,0.01,,,0.01,672,Wunderground v.1.15,2013-01-07 20:05:00,
2013-01-07 14:10:00,68.3,57.3,29.63,North,0,7.0,-999.0,68,0.01,,,0.01,678,Wunderground v.1.15,2013-01-07 20:10:00,
2013-01-07 14:15:00,68.2,57.6,29.63,NNE,23,6.0,-999.0,69,0.01,,,0.01,647,Wunderground v.1.15,2013-01-07 20:15:00,
2013-01-07 14:20:00,68.2,58.0,29.63,ENE,68,6.0,-999.0,70,0.01,,,0.01,637,Wunderground v.1.15,2013-01-07 20:20:00,
2013-01-07 14:25:00,67.9,57.8,29.63,NNE,23,8.0,-999.0,70,0.00,,,0.01,627,Wunderground v.1.15,2013-01-07 20:25:00,
2013-01-07 14:30:00,67.9,57.8,29.62,NNE,23,7.0,-999.0,70,0.00,,,0.01,603,Wunderground v.1.15,2013-01-07 20:30:00,
2013-01-07 14:35:00,67.8,58.1,29.62,North,0,7.0,-999.0,71,0.00,,,0.01,585,Wunderground v.1.15,2013-01-07 20:35:00,
2013-01-07 14:40:00,67.6,57.9,29.62,North,0,5.0,-999.0,71,0.00,,,0.01,566,Wunderground v.1.15,2013-01-07 20:40:00,
2013-01-07 14:45:00,67.4,58.1,29.62,NNE,23,9.0,-999.0,72,0.00,,,0.01,550,Wunderground v.1.15,2013-01-07 20:45:00,
2013-01-07 14:50:00,67.4,58.1,29.62,NE,45,6.0,-999.0,72,0.00,,,0.01,536,Wunderground v.1.15,2013-01-07 20:50:00,
2013-01-07 14:55:00,67.4,58.4,29.62,NE,45,7.0,-999.0,73,0.00,,,0.01,523,Wunderground v.1.15,2013-01-07 20:55:00,
2013-01-07 15:00:00,67.1,58.2,29.63,NNE,23,10.0,-999.0,73,0.00,,,0.01,512,Wunderground v.1.15,2013-01-07 21:00:00,
2013-01-07 15:05:00,66.6,58.1,29.63,NNE,23,9.0,-999.0,74,0.00,,,0.01,89,Wunderground v.1.15,2013-01-07 21:05:00,
2013-01-07 15:10:00,66.0,57.8,29.62,North,0,12.0,-999.0,75,0.00,,,0.01,481,Wunderground v.1.15,2013-01-07 21:10:00,
2013-01-07 15:15:00,65.9,57.7,29.63,ENE,68,5.0,-999.0,75,0.00,,,0.01,63,Wunderground v.1.15,2013-01-07 21:15:00,
2013-01-07 15:20:00,66.1,58.3,29.62,NW,315,3.0,-999.0,76,0.00,,,0.01,442,Wunderground v.1.15,2013-01-07 21:20:00,
2013-01-07 15:25:00,66.1,58.3,29.63,NNE,23,6.0,-999.0,76,0.00,,,0.01,427,Wunderground v.1.15,2013-01-07 21:25:00,
2013-01-07 15:30:00,66.2,58.0,29.63,NE,45,3.0,-999.0,75,0.00,,,0.01,408,Wunderground v.1.15,2013-01-07 21:30:00,
2013-01-07 15:35:00,66.3,58.5,29.63,NNW,338,4.0,-999.0,76,0.00,,,0.01,391,Wunderground v.1.15,2013-01-07 21:35:00,
2013-01-07 15:40:00,65.9,58.1,29.63,NE,45,7.0,-999.0,76,0.00,,,0.01,274,Wunderground v.1.15,2013-01-07 21:40:00,
2013-01-07 15:45:00,65.6,58.2,29.63,North,0,6.0,-999.0,77,0.00,,,0.01,81,Wunderground v.1.15,2013-01-07 21:45:00,
2013-01-07 15:50:00,65.3,57.9,29.62,NE,45,5.0,-999.0,77,0.00,,,0.01,302,Wunderground v.1.15,2013-01-07 21:50:00,
2013-01-07 15:55:00,65.5,58.1,29.63,South,180,2.0,-999.0,77,0.00,,,0.01,307,Wunderground v.1.15,2013-01-07 21:55:00,
2013-01-07 16:00:00,65.3,57.9,29.63,NE,45,8.0,-999.0,77,0.00,,,0.01,293,Wunderground v.1.15,2013-01-07 22:00:00,
2013-01-07 16:05:00,65.1,58.1,29.62,NE,45,5.0,-999.0,78,0.00,,,0.01,281,Wunderground v.1.15,2013-01-07 22:05:00,
2013-01-07 16:10:00,65.0,58.0,29.63,ENE,68,4.0,-999.0,78,0.00,,,0.01,262,Wunderground v.1.15,2013-01-07 22:10:00,
2013-01-07 16:15:00,64.6,57.9,29.63,NE,45,8.0,-999.0,79,0.00,,,0.01,223,Wunderground v.1.15,2013-01-07 22:15:00,
2013-01-07 16:20:00,64.3,57.6,29.63,NE,45,3.0,-999.0,79,0.00,,,0.01,97,Wunderground v.1.15,2013-01-07 22:20:00,
2013-01-07 16:25:00,64.0,57.7,29.63,North,0,7.0,-999.0,80,0.00,,,0.01,96,Wunderground v.1.15,2013-01-07 22:25:00,
2013-01-07 16:30:00,64.0,57.7,29.64,South,180,7.0,-999.0,80,0.00,,,0.01,57,Wunderground v.1.15,2013-01-07 22:30:00,
2013-01-07 16:35:00,63.7,57.8,29.64,NE,45,3.0,-999.0,81,0.00,,,0.01,50,Wunderground v.1.15,2013-01-07 22:35:00,
2013-01-07 16:40:00,63.5,57.6,29.64,WNW,293,6.0,-999.0,81,0.00,,,0.01,50,Wunderground v.1.15,2013-01-07 22:40:00,
2013-01-07 16:45:00,63.3,57.4,29.64,South,180,3.0,-999.0,81,0.00,,,0.01,48,Wunderground v.1.15,2013-01-07 22:45:00,
2013-01-07 16:50:00,63.1,57.5,29.63,North,0,7.0,-999.0,82,0.00,,,0.01,38,Wunderground v.1.15,2013-01-07 22:50:00,
2013-01-07 16:55:00,63.0,57.4,29.63,SW,225,4.0,-999.0,82,0.00,,,0.01,33,Wunderground v.1.15,2013-01-07 22:55:00,
2013-01-07 17:00:00,62.9,57.3,29.63,SE,135,4.0,-999.0,82,0.00,,,0.01,26,Wunderground v.1.15,2013-01-07 23:00:00,
2013-01-07 17:05:00,62.9,57.0,29.64,SSW,203,4.0,-999.0,81,0.00,,,0.01,22,Wunderground v.1.15,2013-01-07 23:05:00,
2013-01-07 17:10:00,62.9,57.0,29.63,SE,135,3.0,-999.0,81,0.00,,,0.01,17,Wunderground v.1.15,2013-01-07 23:10:00,
2013-01-07 17:15:00,63.0,56.7,29.64,NNE,23,5.0,-999.0,80,0.00,,,0.01,16,Wunderground v.1.15,2013-01-07 23:15:00,
2013-01-07 17:20:00,62.9,57.0,29.64,SE,135,7.0,-999.0,81,0.00,,,0.01,11,Wunderground v.1.15,2013-01-07 23:20:00,
2013-01-07 17:25:00,62.8,56.9,29.64,SE,135,9.0,-999.0,81,0.00,,,0.01,8,Wunderground v.1.15,2013-01-07 23:25:00,
2013-01-07 17:30:00,62.8,56.9,29.64,SSE,158,9.0,-999.0,81,0.00,,,0.01,6,Wunderground v.1.15,2013-01-07 23:30:00,
2013-01-07 17:35:00,62.6,56.7,29.65,SE,135,6.0,-999.0,81,0.00,,,0.01,0,Wunderground v.1.15,2013-01-07 23:35:00,
2013-01-07 17:40:00,62.4,56.8,29.64,NE,45,5.0,-999.0,82,0.00,,,0.01,0,Wunderground v.1.15,2013-01-07 23:40:00,
2013-01-07 17:45:00,62.2,56.6,29.64,ESE,113,5.0,-999.0,82,0.00,,,0.01,0,Wunderground v.1.15,2013-01-07 23:45:00,
2013-01-07 17:50:00,61.9,56.7,29.64,NNE,23,2.0,-999.0,83,0.00,,,0.01,0,Wunderground v.1.15,2013-01-07 23:50:00,
2013-01-07 17:55:00,61.6,56.7,29.65,North,0,3.0,-999.0,84,0.00,,,0.01,0,Wunderground v.1.15,2013-01-07 23:55:00,
2013-01-07 18:00:00,61.3,56.8,29.65,NE,45,7.0,-999.0,85,0.00,,,0.01,0,Wunderground v.1.15,2013-01-08 00:00:00,
2013-01-07 18:05:00,61.3,56.1,29.64,SE,135,7.0,-999.0,83,0.00,,,0.01,0,Wunderground v.1.15,2013-01-08 00:05:00,
2013-01-07 18:10:00,61.7,55.8,29.65,SE,135,8.0,-999.0,81,0.00,,,0.01,0,Wunderground v.1.15,2013-01-08 00:10:00,
2013-01-07 18:15:00,61.8,55.6,29.65,SE,135,6.0,-999.0,80,0.00,,,0.01,0,Wunderground v.1.15,2013-01-08 00:15:00,
2013-01-07 18:20:00,62.0,55.8,29.65,SSE,158,10.0,-999.0,80,0.00,,,0.01,0,Wunderground v.1.15,2013-01-08 00:20:00,
2013-01-07 18:25:00,62.1,55.9,29.65,SE,135,14.0,-999.0,80,0.00,,,0.01,0,Wunderground v.1.15,2013-01-08 00:25:00,
2013-01-07 18:30:00,62.2,55.6,29.65,SE,135,11.0,-999.0,79,0.00,,,0.01,0,Wunderground v.1.15,2013-01-08 00:30:00,
2013-01-07 18:35:00,62.1,55.5,29.65,SE,135,8.0,-999.0,79,0.00,,,0.01,0,Wunderground v.1.15,2013-01-08 00:35:00,
2013-01-07 18:40:00,62.0,55.4,29.65,SSE,158,13.0,-999.0,79,0.00,,,0.01,0,Wunderground v.1.15,2013-01-08 00:40:00,
2013-01-07 18:45:00,61.9,55.7,29.66,SE,135,9.0,-999.0,80,0.00,,,0.01,0,Wunderground v.1.15,2013-01-08 00:45:00,
2013-01-07 18:50:00,61.7,55.5,29.66,SSE,158,7.0,-999.0,80,0.00,,,0.01,0,Wunderground v.1.15,2013-01-08 00:50:00,
2013-01-07 18:55:00,61.6,55.0,29.67,SE,135,8.0,-999.0,79,0.00,,,0.01,0,Wunderground v.1.15,2013-01-08 00:55:00,
2013-01-07 19:00:00,61.7,55.5,29.67,SSE,158,3.0,-999.0,80,0.00,,,0.01,0,Wunderground v.1.15,2013-01-08 01:00:00,
2013-01-07 19:05:00,61.8,55.6,29.67,SE,135,8.0,-999.0,80,0.00,,,0.01,0,Wunderground v.1.15,2013-01-08 01:05:00,
2013-01-07 19:10:00,61.7,55.8,29.68,SSW,203,4.0,-999.0,81,0.00,,,0.01,0,Wunderground v.1.15,2013-01-08 01:10:00,
2013-01-07 19:15:00,61.5,56.0,29.67,SSE,158,6.0,-999.0,82,0.00,,,0.01,0,Wunderground v.1.15,2013-01-08 01:15:00,
2013-01-07 19:20:00,61.4,55.9,29.68,ESE,113,4.0,-999.0,82,0.00,,,0.01,0,Wunderground v.1.15,2013-01-08 01:20:00,
2013-01-07 19:25:00,61.2,56.0,29.69,South,180,5.0,-999.0,83,0.00,,,0.01,0,Wunderground v.1.15,2013-01-08 01:25:00,
2013-01-07 19:30:00,61.1,55.9,29.68,SE,135,5.0,-999.0,83,0.00,,,0.01,0,Wunderground v.1.15,2013-01-08 01:30:00,
2013-01-07 19:35:00,61.0,55.8,29.69,SE,135,4.0,-999.0,83,0.00,,,0.01,0,Wunderground v.1.15,2013-01-08 01:35:00,
2013-01-07 19:40:00,60.7,55.8,29.68,NNE,23,4.0,-999.0,84,0.00,,,0.01,0,Wunderground v.1.15,2013-01-08 01:40:00,
2013-01-07 19:45:00,60.6,56.1,29.69,SSE,158,10.0,-999.0,85,0.00,,,0.01,0,Wunderground v.1.15,2013-01-08 01:45:00,
2013-01-07 19:50:00,60.6,55.7,29.69,South,180,6.0,-999.0,84,0.00,,,0.01,0,Wunderground v.1.15,2013-01-08 01:50:00,
2013-01-07 19:55:00,60.7,55.8,29.70,SSW,203,6.0,-999.0,84,0.00,,,0.01,0,Wunderground v.1.15,2013-01-08 01:55:00,
2013-01-07 20:00:00,60.4,55.5,29.69,ENE,68,5.0,-999.0,84,0.00,,,0.01,0,Wunderground v.1.15,2013-01-08 02:00:00,
2013-01-07 20:05:00,60.3,55.4,29.70,NNW,338,3.0,-999.0,84,0.00,,,0.01,0,Wunderground v.1.15,2013-01-08 02:05:00,
2013-01-07 20:10:00,60.4,55.5,29.70,NNE,23,8.0,-999.0,84,0.00,,,0.01,0,Wunderground v.1.15,2013-01-08 02:10:00,
2013-01-07 20:15:00,60.2,55.3,29.69,NNW,338,3.0,-999.0,84,0.00,,,0.01,0,Wunderground v.1.15,2013-01-08 02:15:00,
2013-01-07 20:20:00,60.2,55.0,29.70,ENE,68,5.0,-999.0,83,0.00,,,0.01,0,Wunderground v.1.15,2013-01-08 02:20:00,
2013-01-07 20:25:00,60.4,54.5,29.70,SE,135,6.0,-999.0,81,0.00,,,0.01,0,Wunderground v.1.15,2013-01-08 02:25:00,
2013-01-07 20:30:00,60.9,54.3,29.71,SE,135,6.0,-999.0,79,0.00,,,0.01,0,Wunderground v.1.15,2013-01-08 02:30:00,
2013-01-07 20:35:00,61.3,54.4,29.70,SSE,158,8.0,-999.0,78,0.00,,,0.01,0,Wunderground v.1.15,2013-01-08 02:35:00,
2013-01-07 20:40:00,61.8,53.8,29.70,SE,135,14.0,-999.0,75,0.00,,,0.01,0,Wunderground v.1.15,2013-01-08 02:40:00,
2013-01-07 20:45:00,61.8,53.8,29.70,SE,135,9.0,-999.0,75,0.00,,,0.01,0,Wunderground v.1.15,2013-01-08 02:45:00,
2013-01-07 20:50:00,61.8,53.4,29.70,SSE,158,9.0,-999.0,74,0.00,,,0.01,0,Wunderground v.1.15,2013-01-08 02:50:00,
2013-01-07 20:55:00,61.8,53.8,29.70,SE,135,7.0,-999.0,75,0.00,,,0.01,0,Wunderground v.1.15,2013-01-08 02:55:00,
2013-01-07 21:00:00,61.7,54.1,29.70,ESE,113,6.0,-999.0,76,0.00,,,0.01,0,Wunderground v.1.15,2013-01-08 03:00:00,
2013-01-07 21:05:00,61.4,54.1,29.70,SE,135,3.0,-999.0,77,0.00,,,0.01,0,Wunderground v.1.15,2013-01-08 03:05:00,
2013-01-07 21:10:00,61.2,54.3,29.71,SSE,158,3.0,-999.0,78,0.00,,,0.01,0,Wunderground v.1.15,2013-01-08 03:10:00,
2013-01-07 21:15:00,61.1,54.5,29.71,SSE,158,6.0,-999.0,79,0.00,,,0.01,0,Wunderground v.1.15,2013-01-08 03:15:00,
2013-01-07 21:20:00,60.8,53.9,29.71,WNW,293,5.0,-999.0,78,0.00,,,0.01,0,Wunderground v.1.15,2013-01-08 03:20:00,
2013-01-07 21:25:00,60.7,54.1,29.70,SSW,203,5.0,-999.0,79,0.00,,,0.01,0,Wunderground v.1.15,2013-01-08 03:25:00,
2013-01-07 21:30:00,60.7,53.8,29.70,SE,135,10.0,-999.0,78,0.00,,,0.01,0,Wunderground v.1.15,2013-01-08 03:30:00,
2013-01-07 21:35:00,60.5,53.6,29.71,South,180,6.0,-999.0,78,0.00,,,0.01,0,Wunderground v.1.15,2013-01-08 03:35:00,
2013-01-07 21:40:00,60.3,53.4,29.70,East,90,4.0,-999.0,78,0.00,,,0.01,0,Wunderground v.1.15,2013-01-08 03:40:00,
2013-01-07 21:45:00,60.4,53.5,29.70,SE,135,9.0,-999.0,78,0.00,,,0.01,0,Wunderground v.1.15,2013-01-08 03:45:00,
2013-01-07 21:50:00,60.5,53.6,29.71,SE,135,12.0,-999.0,78,0.00,,,0.01,0,Wunderground v.1.15,2013-01-08 03:50:00,
2013-01-07 21:55:00,60.5,53.6,29.72,SE,135,13.0,-999.0,78,0.00,,,0.01,0,Wunderground v.1.15,2013-01-08 03:55:00,
2013-01-07 22:00:00,60.5,53.3,29.71,SE,135,12.0,-999.0,77,0.00,,,0.01,0,Wunderground v.1.15,2013-01-08 04:00:00,
2013-01-07 22:05:00,60.6,53.3,29.70,SE,135,12.0,-999.0,77,0.00,,,0.01,0,Wunderground v.1.15,2013-01-08 04:05:00,
2013-01-07 22:10:00,60.6,53.7,29.71,ESE,113,10.0,-999.0,78,0.00,,,0.01,0,Wunderground v.1.15,2013-01-08 04:10:00,
2013-01-07 22:15:00,60.5,53.6,29.70,SE,135,16.0,-999.0,78,0.00,,,0.01,0,Wunderground v.1.15,2013-01-08 04:15:00,
2013-01-07 22:20:00,60.4,53.2,29.70,SE,135,11.0,-999.0,77,0.00,,,0.01,0,Wunderground v.1.15,2013-01-08 04:20:00,
2013-01-07 22:25:00,60.4,53.2,29.70,SE,135,15.0,-999.0,77,0.00,,,0.01,0,Wunderground v.1.15,2013-01-08 04:25:00,
2013-01-07 22:30:00,60.5,53.3,29.70,SE,135,12.0,-999.0,77,0.00,,,0.01,0,Wunderground v.1.15,2013-01-08 04:30:00,
2013-01-07 22:35:00,60.3,53.8,29.70,SE,135,9.0,-999.0,79,0.00,,,0.01,0,Wunderground v.1.15,2013-01-08 04:35:00,
2013-01-07 22:40:00,60.1,53.9,29.69,SE,135,11.0,-999.0,80,0.00,,,0.01,0,Wunderground v.1.15,2013-01-08 04:40:00,
2013-01-07 22:45:00,60.0,53.8,29.70,SE,135,10.0,-999.0,80,0.00,,,0.01,0,Wunderground v.1.15,2013-01-08 04:45:00,
2013-01-07 22:50:00,59.8,54.0,29.69,North,0,9.0,-999.0,81,0.00,,,0.01,0,Wunderground v.1.15,2013-01-08 04:50:00,
2013-01-07 22:55:00,59.6,54.1,29.69,SSE,158,6.0,-999.0,82,0.00,,,0.01,0,Wunderground v.1.15,2013-01-08 04:55:00,
2013-01-07 23:00:00,59.5,54.0,29.69,SSE,158,8.0,-999.0,82,0.00,,,0.01,0,Wunderground v.1.15,2013-01-08 05:00:00,
2013-01-07 23:05:00,59.5,54.0,29.69,WNW,293,8.0,-999.0,82,0.00,,,0.01,0,Wunderground v.1.15,2013-01-08 05:05:00,
2013-01-07 23:10:00,59.3,53.8,29.69,North,0,4.0,-999.0,82,0.00,,,0.01,0,Wunderground v.1.15,2013-01-08 05:10:00,
2013-01-07 23:15:00,59.3,53.8,29.70,SSE,158,8.0,-999.0,82,0.00,,,0.01,0,Wunderground v.1.15,2013-01-08 05:15:00,
2013-01-07 23:20:00,59.3,53.8,29.68,NNE,23,7.0,-999.0,82,0.00,,,0.01,0,Wunderground v.1.15,2013-01-08 05:20:00,
2013-01-07 23:25:00,59.4,53.9,29.68,SSE,158,5.0,-999.0,82,0.00,,,0.01,0,Wunderground v.1.15,2013-01-08 05:25:00,
2013-01-07 23:30:00,59.3,54.1,29.67,NNE,23,7.0,-999.0,83,0.00,,,0.01,0,Wunderground v.1.15,2013-01-08 05:30:00,
2013-01-07 23:35:00,59.3,54.1,29.68,SE,135,7.0,-999.0,83,0.00,,,0.01,0,Wunderground v.1.15,2013-01-08 05:35:00,
2013-01-07 23:40:00,59.3,53.8,29.68,SSE,158,11.0,-999.0,82,0.00,,,0.01,0,Wunderground v.1.15,2013-01-08 05:40:00,
2013-01-07 23:45:00,59.3,53.8,29.67,ESE,113,8.0,-999.0,82,0.00,,,0.01,0,Wunderground v.1.15,2013-01-08 05:45:00,
2013-01-07 23:50:00,59.2,53.7,29.68,ENE,68,5.0,-999.0,82,0.00,,,0.01,0,Wunderground v.1.15,2013-01-08 05:50:00,
2013-01-07 23:55:00,59.2,53.7,29.68,SSE,158,7.0,-999.0,82,0.00,,,0.01,0,Wunderground v.1.15,2013-01-08 05:55:00,